MNRL Insider Trading

Insider Ownership Percentage: 3.92%
Insider Buying (Last 12 Months): $0.00
Insider Selling (Last 12 Months): $44,332,879.47

Brigham Minerals Insider Trading History Chart

This chart shows the insider buying and selling history at Brigham Minerals by year and by quarter.

Skip ChartChart Data in Insider Trading History Table

Brigham Minerals Share Price & Price History

Current Price: $32.50
Price Change: Price Decrease of -0.52 (-1.57%)
As of 12/28/2022 09:59 PM ET

This chart shows the closing price history over time for MNRL up to the past year.

Skip Chart and Table DataPrice Data in Insider Trading History Table
Days: 30 | 90 | 365
The #1 Energy Stock to Buy
The next major energy revolution is unfolding right now. And it could hand early investors as much as 46,700% gains…
Get the Name & Ticker Here

Brigham Minerals Insider Trading History

Transaction DateInsider NameTitleBuy/SellNumber of SharesAverage Share PriceTotal TransactionShares Held After TransactionDetails
12/5/2022Robert M RoosaCEOSell6,250$35.75$223,437.50394,465View SEC Filing Icon  
6/23/2022Pbra, LlcDirectorSell41,503$25.21$1,046,290.63View SEC Filing Icon  
6/21/2022Pbra, LlcDirectorSell59,390$28.15$1,671,828.50View SEC Filing Icon  
6/15/2022Pbra, LlcDirectorSell55,247$30.57$1,688,900.79View SEC Filing Icon  
6/13/2022Pbra, LlcDirectorSell173,733$30.87$5,363,137.71View SEC Filing Icon  
6/10/2022Pbra, LlcDirectorSell100,253$32.32$3,240,176.96View SEC Filing Icon  
6/6/2022Robert M RoosaCEOSell6,250$31.94$199,625.00406,965View SEC Filing Icon  
5/26/2022Pbra, LlcDirectorSell389,626$29.37$11,443,315.62View SEC Filing Icon  
3/21/2022Pbra, LlcDirectorSell134,248$24.62$3,305,185.76View SEC Filing Icon  
3/18/2022Pbra, LlcDirectorSell217,904$24.27$5,288,530.08View SEC Filing Icon  
3/16/2022Pbra, LlcDirectorSell47,431$24.05$1,140,715.55View SEC Filing Icon  
3/14/2022Pbra, LlcDirectorSell135,337$24.64$3,334,703.68View SEC Filing Icon  
3/11/2022Pbra, LlcDirectorSell62,231$25.03$1,557,641.93View SEC Filing Icon  
3/9/2022Pbra, LlcDirectorSell81,287$25.28$2,054,935.36View SEC Filing Icon  
3/7/2022Pbra, LlcDirectorSell102,002$27.20$2,774,454.40View SEC Filing Icon  
11/24/2021W Howard Keenan JrDirectorSell45,419$22.30$1,012,843.70View SEC Filing Icon  
11/22/2021W Howard Keenan JrDirectorSell16,553$22.10$365,821.30View SEC Filing Icon  
11/18/2021W Howard Keenan JrDirectorSell7,871$23.07$181,583.97View SEC Filing Icon  
11/16/2021W Howard Keenan JrDirectorSell22,381$23.40$523,715.40View SEC Filing Icon  
6/21/2021W Howard Keenan JrDirectorSell107,954$20.84$2,249,761.36View SEC Filing Icon  
6/9/2021W Howard Keenan JrDirectorSell40,943$20.31$831,552.33View SEC Filing Icon  
6/7/2021W Howard Keenan JrDirectorSell91,627$20.27$1,857,279.29View SEC Filing Icon  
6/4/2021W Howard Keenan JrDirectorSell128,751$20.56$2,647,120.56View SEC Filing Icon  
6/2/2021Blake C. WilliamsCFOSell26,500$18.99$503,235.00View SEC Filing Icon  
6/1/2021W Howard Keenan JrDirectorSell44,293$18.74$830,050.82View SEC Filing Icon  
5/28/2021W Howard Keenan JrDirectorSell48,938$18.08$884,799.04View SEC Filing Icon  
5/26/2021W Howard Keenan JrDirectorSell35,129$18.00$632,322.00View SEC Filing Icon  
5/24/2021W Howard Keenan JrDirectorSell24,463$17.95$439,110.85View SEC Filing Icon  
5/20/2021W Howard Keenan JrDirectorSell16,665$17.81$296,803.65View SEC Filing Icon  
5/18/2021W Howard Keenan JrDirectorSell19,464$18.41$358,332.24View SEC Filing Icon  
3/22/2021W Howard Keenan JrDirectorSell11,854$14.37$170,341.98View SEC Filing Icon  
3/17/2021W Howard Keenan JrDirectorSell53,700$15.46$830,202.00View SEC Filing Icon  
3/15/2021W Howard Keenan JrDirectorSell3,975$16.35$64,991.25View SEC Filing Icon  
3/12/2021W Howard Keenan JrDirectorSell30,941$16.41$507,741.81View SEC Filing Icon  
9/16/2020Kari Arneil PottsVPBuy340$8.90$3,026.00View SEC Filing Icon  
9/15/2020Ben M BrighamChairmanBuy22,000$8.90$195,800.00View SEC Filing Icon  
9/15/2020Warburg Pincus & Co Us, LlcDirectorSell5,457,770$8.08$44,098,781.60View SEC Filing Icon  
6/12/2020Warburg Pincus & Co Us, LlcDirectorSell4,427,052$13.46$59,588,119.92View SEC Filing Icon  
3/24/2020John R. SultDirectorBuy10,000$7.00$70,000.00View SEC Filing Icon  
3/20/2020Harold D. CarterDirectorBuy2,375$7.04$16,720.00View SEC Filing Icon  
3/18/2020Harold D. CarterDirectorBuy2,000$6.46$12,920.00View SEC Filing Icon  
3/11/2020Ben M BrighamChairmanBuy10,000$9.83$98,300.00View SEC Filing Icon  
3/9/2020Harold D. CarterDirectorBuy4,000$12.03$48,120.00View SEC Filing Icon  
See Full Table
A gold storm is coming…
“We are in the early stages of a mania – the calm before the storm.”...
[Full Story]

SEC Filings (Institutional Ownership Changes) for Brigham Minerals (NYSE:MNRL)

76.33% of Brigham Minerals stock is owned by institutions. Institutional ownership can be a sign of analyst confidence in the fundamentals of the stock.

Institutional Buying and Selling by Quarter

This chart shows the instiutional buying and selling at MNRL by year and by quarter.

Skip Institutional Buying and Selling Chart and Table DataRead Chart Data in Institutional Trading History Table

Brigham Minerals Institutional Trading History

Reporting DateHedge FundShares HeldMarket Value% of PortfolioQuarterly Change in SharesOwnership in CompanyDetails
12/8/2022Bank of New York Mellon Corp356,071$8.78M0.0%+7.0%0.589%Search for SEC Filing on Google Icon
11/23/2022Toroso Investments LLC21,984$0.54M0.0%+2.3%0.036%Search for SEC Filing on Google Icon
11/21/2022California State Teachers Retirement System63,450$1.57M0.0%+3.0%0.105%Search for SEC Filing on Google Icon
11/16/2022Balyasny Asset Management LLC23,135$0.57M0.0%N/A0.038%Search for SEC Filing on Google Icon
11/16/2022CIBC Private Wealth Group LLC1,433,747$35.37M0.1%+4.2%2.372%Search for SEC Filing on Google Icon
11/16/2022Horizon Kinetics Asset Management LLC2,027,024$50.01M1.0%-9.6%3.353%Search for SEC Filing on Google Icon
11/16/2022BNP Paribas Arbitrage SNC23,128$0.57M0.0%-25.6%0.038%Search for SEC Filing on Google Icon
11/15/2022State Street Corp2,034,482$50.19M0.0%-9.4%3.366%Search for SEC Filing on Google Icon
11/15/2022Public Employees Retirement System of Ohio147,670$3.64M0.0%+3.1%0.244%Search for SEC Filing on Google Icon
11/15/2022Titleist Asset Management LTD.19,968$0.49M0.1%-46.0%0.033%Search for SEC Filing on Google Icon
11/15/2022Two Sigma Advisers LP204,200$5.04M0.0%+54.5%0.338%Search for SEC Filing on Google Icon
11/15/2022Two Sigma Investments LP283,986$7.01M0.0%+19.9%0.470%Search for SEC Filing on Google Icon
11/15/2022Trexquant Investment LP19,481$0.48M0.0%-18.8%0.032%Search for SEC Filing on Google Icon
11/15/2022UBS Asset Management Americas Inc.40,254$0.99M0.0%-28.0%0.067%Search for SEC Filing on Google Icon
11/15/2022Vanguard Group Inc.2,878,269$71.01M0.0%+1.8%4.762%Search for SEC Filing on Google Icon
11/15/2022Pathstone Family Office LLC17,271$0.43M0.0%+37.8%0.029%Search for SEC Filing on Google Icon
11/15/2022Prelude Capital Management LLC9,025$0.22M0.0%N/A0.015%Search for SEC Filing on Google Icon
11/15/2022Price T Rowe Associates Inc. MD8,293$0.21M0.0%N/A0.014%Search for SEC Filing on Google Icon
11/15/2022Putnam Investments LLC149,833$3.70M0.0%+48.8%0.248%Search for SEC Filing on Google Icon
11/15/2022Lagoda Investment Management L.P.19,465$0.48M0.3%+27.4%0.032%Search for SEC Filing on Google Icon
11/15/2022ETF Managers Group LLC6,586$0.16M0.0%N/A0.011%Search for SEC Filing on Google Icon
11/15/2022Evergreen Capital Management LLC170,312$4.20M0.2%+0.2%0.282%Search for SEC Filing on Google Icon
11/15/2022Engineers Gate Manager LP14,782$0.37M0.0%-57.7%0.024%Search for SEC Filing on Google Icon
11/15/2022Epoch Investment Partners Inc.424,726$10.48M0.1%+1.3%0.703%Search for SEC Filing on Google Icon
11/15/2022Formidable Asset Management LLC23,194$0.58M0.1%+2.2%0.038%Search for SEC Filing on Google Icon
11/15/2022Bank of New York Mellon Corp356,071$8.78M0.0%+7.0%0.589%Search for SEC Filing on Google Icon
11/15/2022BlackRock Inc.3,808,537$93.96M0.0%+3.8%6.300%Search for SEC Filing on Google Icon
11/14/2022Royal Bank of Canada100,128$2.47M0.0%+43.7%0.166%Search for SEC Filing on Google Icon
11/14/2022Point72 Hong Kong Ltd4,508$0.11M0.0%N/A0.007%Search for SEC Filing on Google Icon
11/14/2022Cubist Systematic Strategies LLC45,314$1.12M0.0%-62.4%0.075%Search for SEC Filing on Google Icon
11/14/2022PDT Partners LLC34,898$0.86M0.1%-31.9%0.058%Search for SEC Filing on Google Icon
11/14/2022Renaissance Technologies LLC363,600$8.97M0.0%+615.7%0.602%Search for SEC Filing on Google Icon
11/14/2022Ergoteles LLC36,293$0.90M0.0%N/A0.060%Search for SEC Filing on Google Icon
11/14/2022Nations Financial Group Inc. IA ADV10,063$0.25M0.0%N/A0.017%Search for SEC Filing on Google Icon
11/14/2022Nuveen Asset Management LLC1,218,240$30.05M0.0%-12.6%2.015%Search for SEC Filing on Google Icon
11/14/2022UBS Oconnor LLC131,400$3.24M0.1%N/A0.217%Search for SEC Filing on Google Icon
11/14/2022MetLife Investment Management LLC26,821$0.66M0.0%+3.2%0.044%Search for SEC Filing on Google Icon
11/10/2022Envestnet Asset Management Inc.22,886$0.57M0.0%-5.0%0.038%Search for SEC Filing on Google Icon
11/10/2022Credit Suisse AG133,622$3.30M0.0%+12.0%0.221%Search for SEC Filing on Google Icon
11/10/2022Connor Clark & Lunn Investment Management Ltd.181,164$4.47M0.0%-9.6%0.299%Search for SEC Filing on Google Icon
11/10/2022Hillsdale Investment Management Inc.30,075$0.74M0.1%+15.3%0.050%Search for SEC Filing on Google Icon
11/10/2022Dimensional Fund Advisors LP910,665$22.47M0.0%+19.3%1.505%Search for SEC Filing on Google Icon
11/10/2022Tower Research Capital LLC TRC 4,858$0.12M0.0%+135.4%0.008%Search for SEC Filing on Google Icon
11/10/2022UBS Group AG35,567$0.88M0.0%+20.2%0.059%Search for SEC Filing on Google Icon
11/10/2022Grantham Mayo Van Otterloo & Co. LLC8,600$0.21M0.0%N/A0.014%Search for SEC Filing on Google Icon
11/10/2022Cullen Capital Management LLC23,849$0.59M0.0%+25.9%0.039%Search for SEC Filing on Google Icon
11/9/2022Freestone Capital Holdings LLC71,000$1.75M0.1%N/A0.117%Search for SEC Filing on Google Icon
11/9/2022Blair William & Co. IL125,757$3.10M0.0%-1.6%0.208%Search for SEC Filing on Google Icon
11/9/2022Aigen Investment Management LP8,656$0.21M0.0%N/A0.014%Search for SEC Filing on Google Icon
11/9/2022Navellier & Associates Inc.23,667$0.58M0.1%N/A0.039%Search for SEC Filing on Google Icon
11/8/2022Apollon Wealth Management LLC9,307$0.23M0.0%N/A0.015%Search for SEC Filing on Google Icon
11/8/2022Fisher Asset Management LLC133,526$3.29M0.0%+0.3%0.221%Search for SEC Filing on Google Icon
11/8/2022Eagle Asset Management Inc.308,337$7.61M0.0%+11.3%0.509%Search for SEC Filing on Google Icon
11/8/2022Moors & Cabot Inc.15,950$0.39M0.0%+9.2%0.026%Search for SEC Filing on Google Icon
11/7/2022Virtu Financial LLC9,709$0.24M0.0%N/A0.016%Search for SEC Filing on Google Icon
11/7/2022Rothschild & Co. Asset Management US Inc.218,465$5.39M0.1%+0.2%0.361%Search for SEC Filing on Google Icon
11/7/2022Level Four Advisory Services LLC13,800$0.34M0.0%-32.4%0.023%Search for SEC Filing on Google Icon
11/7/2022Arizona State Retirement System13,507$0.33M0.0%+8.5%0.022%Search for SEC Filing on Google Icon
11/7/2022Jump Financial LLC44,954$1.11M0.0%N/A0.074%Search for SEC Filing on Google Icon
11/4/2022Prudential Financial Inc.14,888$0.37M0.0%+20.9%0.025%Search for SEC Filing on Google Icon
11/4/2022Asset Management One Co. Ltd.77,764$1.92M0.0%-5.6%0.128%Search for SEC Filing on Google Icon
11/4/2022Russell Investments Group Ltd.380,121$9.38M0.0%+2.9%0.628%Search for SEC Filing on Google Icon
11/3/2022Oxbow Advisors LLC268,602$6.63M1.0%-7.8%0.444%Search for SEC Filing on Google Icon
11/3/2022Royce & Associates LP168,200$4.15M0.0%-5.6%0.278%Search for SEC Filing on Google Icon
11/3/2022Barclays PLC16,739$0.41M0.0%+147.0%0.028%Search for SEC Filing on Google Icon
11/2/2022Los Angeles Capital Management LLC40,659$1M0.0%+42.8%0.067%Search for SEC Filing on Google Icon
11/2/2022Aptus Capital Advisors LLC134,478$3.32M0.1%+5.8%0.222%Search for SEC Filing on Google Icon
11/2/2022Victory Capital Management Inc.401,918$9.92M0.0%+1.6%0.664%Search for SEC Filing on Google Icon
11/1/2022Great West Life Assurance Co. Can2,779$68K0.0%N/A0.005%Search for SEC Filing on Google Icon
11/1/2022Avalon Investment & Advisory129,902$3.21M0.1%-6.3%0.215%Search for SEC Filing on Google Icon
10/31/2022SG Americas Securities LLC55,369$1.37M0.0%+218.3%0.091%Search for SEC Filing on Google Icon
10/31/2022Valeo Financial Advisors LLC98,242$2.42M0.2%N/A0.162%Search for SEC Filing on Google Icon
10/31/2022Harel Insurance Investments & Financial Services Ltd.3,275$82K0.0%N/A0.005%Search for SEC Filing on Google Icon
10/28/2022Bell Rock Capital LLC19,117$0.47M0.6%N/A0.032%Search for SEC Filing on Google Icon
10/25/2022Raymond James Financial Services Advisors Inc.34,332$0.85M0.0%+13.5%0.057%Search for SEC Filing on Google Icon
10/25/2022Eagle Global Advisors LLC55,300$1.36M0.1%-0.9%0.091%Search for SEC Filing on Google Icon
10/19/2022Meridian Wealth Advisors LLC58,303$1.44M0.4%-3.3%0.096%Search for SEC Filing on Google Icon
10/18/2022QV Investors Inc.40,390$1M0.1%+6.2%0.067%Search for SEC Filing on Google Icon
10/18/2022One Plus One Wealth Management LLC12,365$0.31M0.2%+27.2%0.020%Search for SEC Filing on Google Icon
9/16/2022Federated Hermes Inc.338,922$8.35M0.0%+654.9%0.560%Search for SEC Filing on Google Icon
8/30/2022Verition Fund Management LLC9,363$0.23M0.0%N/A0.015%Search for SEC Filing on Google Icon
8/22/2022Legal & General Group Plc17,842$0.44M0.0%+13.2%0.029%Search for SEC Filing on Google Icon
8/22/2022ExodusPoint Capital Management LP67,870$1.67M0.0%N/A0.112%Search for SEC Filing on Google Icon
8/18/2022Goldman Sachs Group Inc.982,047$24.19M0.0%-40.9%1.623%Search for SEC Filing on Google Icon
8/16/2022Captrust Financial Advisors1,360$33K0.0%+61.3%0.002%Search for SEC Filing on Google Icon
8/16/2022Formidable Asset Management LLC22,705$0.56M0.1%N/A0.038%Search for SEC Filing on Google Icon
8/16/2022Prudential Financial Inc.12,314$0.31M0.0%+13.9%0.020%Search for SEC Filing on Google Icon
8/15/2022AQR Capital Management LLC28,488$0.70M0.0%-17.2%0.047%Search for SEC Filing on Google Icon
8/15/2022State Street Corp2,245,408$55.30M0.0%+42.9%3.710%Search for SEC Filing on Google Icon
8/15/2022Cubist Systematic Strategies LLC120,513$2.97M0.0%+82.0%0.199%Search for SEC Filing on Google Icon
8/15/2022Millennium Management LLC294,137$7.25M0.0%+1,868.7%0.486%Search for SEC Filing on Google Icon
8/15/2022Sei Investments Co.143,261$3.53M0.0%-44.1%0.237%Search for SEC Filing on Google Icon
8/15/2022UBS Asset Management Americas Inc.55,929$1.38M0.0%+96.8%0.092%Search for SEC Filing on Google Icon
8/15/2022Menard Financial Group LLC29,991$0.74M1.2%-18.0%0.050%Search for SEC Filing on Google Icon
8/13/2022Quantbot Technologies LP22,224$0.55M0.1%-55.0%0.037%Search for SEC Filing on Google Icon
8/13/2022Rothschild & Co. Asset Management US Inc.218,081$5.37M0.1%-52.0%0.360%Search for SEC Filing on Google Icon
8/13/2022Zurcher Kantonalbank Zurich Cantonalbank 6,712$0.17M0.0%-24.1%0.011%Search for SEC Filing on Google Icon
8/13/2022Wells Fargo & Company MN220,722$5.44M0.0%+11.0%0.365%Search for SEC Filing on Google Icon
8/13/2022Renaissance Technologies LLC50,800$1.25M0.0%+78.9%0.084%Search for SEC Filing on Google Icon
8/13/2022American International Group Inc.23,870$0.59M0.0%+10.1%0.039%Search for SEC Filing on Google Icon
Data available starting January 2016

See Full Table
Brigham Minerals logo
Brigham Minerals, Inc. owns and operates a portfolio of mineral and royalty interests in the continental United States. The company primarily holds mineral and royalty interests in the Delaware and Midland Basins in West Texas and New Mexico; the South Central Oklahoma Oil Province and Sooner Trend Anadarko Basin Canadian and Kingfisher Counties plays in the Anadarko Basin of Oklahoma; the Denver-Julesburg Basin in Colorado; and Wyoming and the Williston Basin in North Dakota. As of December 31, 2021, it had mineral and royalty interests in approximately 92,375 net royalty acres; and owned mineral and royalty interests in 8,595 gross productive horizontal wells, which consisted of 7,909 oil wells and 688 natural gas wells. The company was founded in 2012 and is headquartered in Austin, Texas.
Read More on Brigham Minerals

Today's Range

Now: $32.50
Low: $32.00
High: $33.50

50 Day Range

MA: $33.02
Low: $31.74
High: $37.03

52 Week Range

Now: $32.50
Low: $20.53
High: $37.79

Volume

3,018,900 shs

Average Volume

520,501 shs

Market Capitalization

$1.96 billion

P/E Ratio

13.32

Dividend Yield

1.97%

Beta

1.88

Who are the company insiders with the largest holdings of Brigham Minerals?

Brigham Minerals' top insider shareholders include:
  1. Robert M Roosa (CEO)
  2. Blake C Williams (CFO)
  3. Pbra, Llc (Director)
  4. W Howard Keenan Jr (Director)
Learn More about top insider investors at Brigham Minerals.

Who are the major institutional investors of Brigham Minerals?

Brigham Minerals' top institutional investors include:
  1. Simplex Trading LLC — 0.00%
  2. Concourse Financial Group Securities Inc. — 0.00%
Learn More about top institutional investors of Brigham Minerals stock.

Which major investors are selling Brigham Minerals stock?

In the last quarter, MNRL stock was sold by these institutional investors:
  1. Simplex Trading LLC
Within the previous year, company insiders that have sold Brigham Minerals company stock include:
  1. Robert M Roosa (CEO)
  2. Blake C Williams (CFO)
Learn More investors selling Brigham Minerals stock.